LFRG/DOL METAR and TAF weather

Enter ICAO airport designator
Station Type Date Time Source
LFRG METAR 2020/11/27 13:00 UTC NOAA

LFRG 271300Z AUTO 07005KT 030V100 7000 SCT046 BKN054 OVC090 09/07 Q1015 NOSIG


Station Type Date Time Source
LFRG Decoded METAR 2020/11/27 13:00 UTC NOAA

Station name not available
Nov 27, 2020 - 08:00 AM EST / 2020.11.27 1300 UTC
Wind: from the ENE (070 degrees) at 6 MPH (5 KT) (direction variable):0
Visibility: 4 mile(s):0
Sky conditions: overcast
Temperature: 48 F (9 C)
Dew Point: 44 F (7 C)
Relative Humidity: 87%
Pressure (altimeter): 29.97 in. Hg (1015 hPa)
ob: LFRG 271300Z AUTO 07005KT 030V100 7000 SCT046 BKN054 OVC090 09/07 Q1015 NOSIG
cycle: 13

Station Type Date Time Source
LFRG TAF 2014/12/22 18:42 UTC NOAA

TAF
AMD TAF
AMD LFRG 221837Z 2218/2221 25015KT 9999 OVC015
TEMPO 2218/2221 BKN007 PROB30
TEMPO 2218/2221 25015G25KT 4000 DZ BKN003

Example: see airport list